sensor_id;sensor_type;location;lat;lon;timestamp;P1;durP1;ratioP1;P2;durP2;ratioP2
73515;SDS011;61763;51.416;5.442;2023-09-08T00:01:57;7.53;;;5.50;;
73515;SDS011;61763;51.416;5.442;2023-09-08T00:04:22;9.73;;;7.47;;
73515;SDS011;61763;51.416;5.442;2023-09-08T00:06:48;9.98;;;6.78;;
73515;SDS011;61763;51.416;5.442;2023-09-08T00:09:14;8.73;;;5.20;;
73515;SDS011;61763;51.416;5.442;2023-09-08T00:11:39;11.85;;;5.35;;
73515;SDS011;61763;51.416;5.442;2023-09-08T00:14:05;8.95;;;5.30;;
73515;SDS011;61763;51.416;5.442;2023-09-08T00:16:30;9.50;;;5.88;;
73515;SDS011;61763;51.416;5.442;2023-09-08T00:18:56;9.70;;;5.72;;
73515;SDS011;61763;51.416;5.442;2023-09-08T00:23:49;10.90;;;5.97;;
73515;SDS011;61763;51.416;5.442;2023-09-08T00:26:14;9.68;;;5.57;;
73515;SDS011;61763;51.416;5.442;2023-09-08T00:28:40;9.77;;;5.50;;
73515;SDS011;61763;51.416;5.442;2023-09-08T00:31:05;10.77;;;6.50;;
73515;SDS011;61763;51.416;5.442;2023-09-08T00:33:31;9.82;;;5.47;;
73515;SDS011;61763;51.416;5.442;2023-09-08T00:35:56;8.27;;;5.60;;
73515;SDS011;61763;51.416;5.442;2023-09-08T00:38:23;11.30;;;5.38;;
73515;SDS011;61763;51.416;5.442;2023-09-08T00:40:49;8.88;;;5.50;;
73515;SDS011;61763;51.416;5.442;2023-09-08T00:43:14;8.93;;;5.38;;
73515;SDS011;61763;51.416;5.442;2023-09-08T00:45:42;9.07;;;5.03;;
73515;SDS011;61763;51.416;5.442;2023-09-08T00:48:08;8.35;;;5.55;;
73515;SDS011;61763;51.416;5.442;2023-09-08T00:50:35;9.45;;;5.25;;
73515;SDS011;61763;51.416;5.442;2023-09-08T00:53:02;11.30;;;6.60;;
73515;SDS011;61763;51.416;5.442;2023-09-08T00:55:29;11.52;;;7.45;;
73515;SDS011;61763;51.416;5.442;2023-09-08T00:57:55;10.27;;;6.57;;
73515;SDS011;61763;51.416;5.442;2023-09-08T01:00:20;9.05;;;6.82;;
73515;SDS011;61763;51.416;5.442;2023-09-08T01:02:46;8.77;;;6.03;;
73515;SDS011;61763;51.416;5.442;2023-09-08T01:05:12;8.70;;;5.47;;
73515;SDS011;61763;51.416;5.442;2023-09-08T01:07:39;9.73;;;5.85;;
73515;SDS011;61763;51.416;5.442;2023-09-08T01:10:05;9.82;;;7.22;;
73515;SDS011;61763;51.416;5.442;2023-09-08T01:12:32;10.93;;;8.05;;
73515;SDS011;61763;51.416;5.442;2023-09-08T01:15:00;10.75;;;7.25;;
73515;SDS011;61763;51.416;5.442;2023-09-08T01:17:26;12.45;;;6.18;;
73515;SDS011;61763;51.416;5.442;2023-09-08T01:19:52;10.70;;;5.90;;
73515;SDS011;61763;51.416;5.442;2023-09-08T01:22:39;9.50;;;5.85;;
73515;SDS011;61763;51.416;5.442;2023-09-08T01:25:17;10.27;;;6.38;;
73515;SDS011;61763;51.416;5.442;2023-09-08T01:27:46;11.05;;;6.70;;
73515;SDS011;61763;51.416;5.442;2023-09-08T01:30:15;10.02;;;6.68;;
73515;SDS011;61763;51.416;5.442;2023-09-08T01:32:41;11.75;;;6.93;;
73515;SDS011;61763;51.416;5.442;2023-09-08T01:35:07;10.13;;;6.90;;
73515;SDS011;61763;51.416;5.442;2023-09-08T01:37:35;11.60;;;7.47;;
73515;SDS011;61763;51.416;5.442;2023-09-08T01:40:00;12.02;;;7.10;;
73515;SDS011;61763;51.416;5.442;2023-09-08T01:42:26;9.77;;;7.03;;
73515;SDS011;61763;51.416;5.442;2023-09-08T01:44:51;12.18;;;8.15;;
73515;SDS011;61763;51.416;5.442;2023-09-08T01:47:16;10.57;;;6.10;;
73515;SDS011;61763;51.416;5.442;2023-09-08T01:49:42;9.90;;;6.47;;
73515;SDS011;61763;51.416;5.442;2023-09-08T01:52:07;9.63;;;5.82;;
73515;SDS011;61763;51.416;5.442;2023-09-08T01:54:32;10.65;;;7.25;;
73515;SDS011;61763;51.416;5.442;2023-09-08T01:56:58;10.25;;;7.43;;
73515;SDS011;61763;51.416;5.442;2023-09-08T01:59:23;12.75;;;7.97;;
73515;SDS011;61763;51.416;5.442;2023-09-08T02:01:48;13.00;;;7.97;;
73515;SDS011;61763;51.416;5.442;2023-09-08T02:04:14;13.68;;;9.18;;
73515;SDS011;61763;51.416;5.442;2023-09-08T02:06:39;11.50;;;7.50;;
73515;SDS011;61763;51.416;5.442;2023-09-08T02:09:05;10.25;;;6.35;;
73515;SDS011;61763;51.416;5.442;2023-09-08T02:11:30;11.55;;;6.50;;
73515;SDS011;61763;51.416;5.442;2023-09-08T02:13:56;10.55;;;7.53;;
73515;SDS011;61763;51.416;5.442;2023-09-08T02:16:21;11.50;;;7.95;;
73515;SDS011;61763;51.416;5.442;2023-09-08T02:18:47;10.98;;;7.57;;
73515;SDS011;61763;51.416;5.442;2023-09-08T02:21:12;11.15;;;6.68;;
73515;SDS011;61763;51.416;5.442;2023-09-08T02:23:37;12.07;;;8.10;;
73515;SDS011;61763;51.416;5.442;2023-09-08T02:26:03;9.65;;;6.47;;
73515;SDS011;61763;51.416;5.442;2023-09-08T02:28:28;12.10;;;6.57;;
73515;SDS011;61763;51.416;5.442;2023-09-08T02:30:54;11.82;;;8.05;;
73515;SDS011;61763;51.416;5.442;2023-09-08T02:33:20;12.38;;;6.72;;
73515;SDS011;61763;51.416;5.442;2023-09-08T02:35:45;9.75;;;6.63;;
73515;SDS011;61763;51.416;5.442;2023-09-08T02:38:11;11.93;;;8.85;;
73515;SDS011;61763;51.416;5.442;2023-09-08T02:40:36;11.68;;;6.85;;
73515;SDS011;61763;51.416;5.442;2023-09-08T02:43:02;11.45;;;6.80;;
73515;SDS011;61763;51.416;5.442;2023-09-08T02:45:27;11.50;;;6.63;;
73515;SDS011;61763;51.416;5.442;2023-09-08T02:47:53;11.40;;;7.05;;
73515;SDS011;61763;51.416;5.442;2023-09-08T02:50:18;10.80;;;6.72;;
73515;SDS011;61763;51.416;5.442;2023-09-08T02:52:44;13.82;;;8.13;;
73515;SDS011;61763;51.416;5.442;2023-09-08T02:55:10;13.40;;;8.57;;
73515;SDS011;61763;51.416;5.442;2023-09-08T02:57:36;11.45;;;6.97;;
73515;SDS011;61763;51.416;5.442;2023-09-08T03:00:02;12.05;;;7.70;;
73515;SDS011;61763;51.416;5.442;2023-09-08T03:04:55;11.98;;;7.78;;
73515;SDS011;61763;51.416;5.442;2023-09-08T03:07:21;10.40;;;6.50;;
73515;SDS011;61763;51.416;5.442;2023-09-08T03:09:46;10.95;;;7.57;;
73515;SDS011;61763;51.416;5.442;2023-09-08T03:12:12;11.82;;;7.30;;
73515;SDS011;61763;51.416;5.442;2023-09-08T03:14:37;13.80;;;7.75;;
73515;SDS011;61763;51.416;5.442;2023-09-08T03:17:03;13.85;;;8.57;;
73515;SDS011;61763;51.416;5.442;2023-09-08T03:19:28;11.50;;;6.90;;
73515;SDS011;61763;51.416;5.442;2023-09-08T03:21:53;13.00;;;6.80;;
73515;SDS011;61763;51.416;5.442;2023-09-08T03:24:19;12.77;;;7.22;;
73515;SDS011;61763;51.416;5.442;2023-09-08T03:26:45;13.68;;;9.38;;
73515;SDS011;61763;51.416;5.442;2023-09-08T03:29:13;10.48;;;7.53;;
73515;SDS011;61763;51.416;5.442;2023-09-08T03:31:38;13.73;;;6.55;;
73515;SDS011;61763;51.416;5.442;2023-09-08T03:34:04;12.90;;;7.18;;
73515;SDS011;61763;51.416;5.442;2023-09-08T03:36:29;14.73;;;8.18;;
73515;SDS011;61763;51.416;5.442;2023-09-08T03:38:56;13.45;;;8.50;;
73515;SDS011;61763;51.416;5.442;2023-09-08T03:41:23;11.38;;;7.43;;
73515;SDS011;61763;51.416;5.442;2023-09-08T03:43:48;12.32;;;7.72;;
73515;SDS011;61763;51.416;5.442;2023-09-08T03:46:14;10.18;;;7.47;;
73515;SDS011;61763;51.416;5.442;2023-09-08T03:48:39;11.95;;;8.15;;
73515;SDS011;61763;51.416;5.442;2023-09-08T03:51:05;13.27;;;7.55;;
73515;SDS011;61763;51.416;5.442;2023-09-08T03:53:30;13.52;;;7.50;;
73515;SDS011;61763;51.416;5.442;2023-09-08T03:55:56;12.95;;;7.45;;
73515;SDS011;61763;51.416;5.442;2023-09-08T03:58:21;12.73;;;7.47;;
73515;SDS011;61763;51.416;5.442;2023-09-08T04:00:47;12.88;;;9.35;;
73515;SDS011;61763;51.416;5.442;2023-09-08T04:03:12;12.20;;;7.30;;
73515;SDS011;61763;51.416;5.442;2023-09-08T04:05:38;11.32;;;7.43;;
73515;SDS011;61763;51.416;5.442;2023-09-08T04:08:03;12.88;;;7.32;;
73515;SDS011;61763;51.416;5.442;2023-09-08T04:10:30;10.77;;;7.78;;
73515;SDS011;61763;51.416;5.442;2023-09-08T04:12:55;13.13;;;8.20;;
73515;SDS011;61763;51.416;5.442;2023-09-08T04:15:20;14.07;;;9.18;;
73515;SDS011;61763;51.416;5.442;2023-09-08T04:17:46;13.65;;;8.98;;
73515;SDS011;61763;51.416;5.442;2023-09-08T04:20:13;13.60;;;9.05;;
73515;SDS011;61763;51.416;5.442;2023-09-08T04:22:40;14.48;;;9.20;;
73515;SDS011;61763;51.416;5.442;2023-09-08T04:25:06;12.93;;;8.18;;
73515;SDS011;61763;51.416;5.442;2023-09-08T04:27:31;12.75;;;8.38;;
73515;SDS011;61763;51.416;5.442;2023-09-08T04:29:57;12.45;;;7.60;;
73515;SDS011;61763;51.416;5.442;2023-09-08T04:32:24;14.27;;;9.15;;
73515;SDS011;61763;51.416;5.442;2023-09-08T04:34:50;15.07;;;9.15;;
73515;SDS011;61763;51.416;5.442;2023-09-08T04:37:15;18.23;;;11.52;;
73515;SDS011;61763;51.416;5.442;2023-09-08T04:39:41;15.52;;;10.48;;
73515;SDS011;61763;51.416;5.442;2023-09-08T04:42:06;19.42;;;10.65;;
73515;SDS011;61763;51.416;5.442;2023-09-08T04:44:31;22.55;;;11.60;;
73515;SDS011;61763;51.416;5.442;2023-09-08T04:46:57;17.02;;;10.95;;
73515;SDS011;61763;51.416;5.442;2023-09-08T04:49:22;20.77;;;11.23;;
73515;SDS011;61763;51.416;5.442;2023-09-08T04:51:48;17.27;;;11.15;;
73515;SDS011;61763;51.416;5.442;2023-09-08T04:54:15;18.67;;;10.20;;
73515;SDS011;61763;51.416;5.442;2023-09-08T04:56:40;14.45;;;8.88;;
73515;SDS011;61763;51.416;5.442;2023-09-08T04:59:06;16.90;;;11.13;;
73515;SDS011;61763;51.416;5.442;2023-09-08T05:01:31;15.77;;;8.85;;
73515;SDS011;61763;51.416;5.442;2023-09-08T05:03:58;14.88;;;8.45;;
73515;SDS011;61763;51.416;5.442;2023-09-08T05:06:26;16.58;;;9.88;;
73515;SDS011;61763;51.416;5.442;2023-09-08T05:08:51;15.07;;;10.02;;
73515;SDS011;61763;51.416;5.442;2023-09-08T05:11:17;17.52;;;9.98;;
73515;SDS011;61763;51.416;5.442;2023-09-08T05:13:44;17.77;;;10.68;;
73515;SDS011;61763;51.416;5.442;2023-09-08T05:16:09;15.95;;;10.25;;
73515;SDS011;61763;51.416;5.442;2023-09-08T05:18:38;16.08;;;8.00;;
73515;SDS011;61763;51.416;5.442;2023-09-08T05:21:04;16.88;;;10.25;;
73515;SDS011;61763;51.416;5.442;2023-09-08T05:23:30;19.23;;;9.45;;
73515;SDS011;61763;51.416;5.442;2023-09-08T05:25:55;17.92;;;9.38;;
73515;SDS011;61763;51.416;5.442;2023-09-08T05:28:21;16.83;;;9.35;;
73515;SDS011;61763;51.416;5.442;2023-09-08T05:30:46;17.38;;;9.63;;
73515;SDS011;61763;51.416;5.442;2023-09-08T05:33:11;16.40;;;10.50;;
73515;SDS011;61763;51.416;5.442;2023-09-08T05:35:37;18.30;;;11.23;;
73515;SDS011;61763;51.416;5.442;2023-09-08T05:38:03;20.65;;;12.05;;
73515;SDS011;61763;51.416;5.442;2023-09-08T05:40:28;19.92;;;12.18;;
73515;SDS011;61763;51.416;5.442;2023-09-08T05:42:54;16.27;;;9.52;;
73515;SDS011;61763;51.416;5.442;2023-09-08T05:45:19;16.10;;;9.45;;
73515;SDS011;61763;51.416;5.442;2023-09-08T05:47:45;22.25;;;11.95;;
73515;SDS011;61763;51.416;5.442;2023-09-08T05:50:10;21.30;;;11.90;;
73515;SDS011;61763;51.416;5.442;2023-09-08T05:52:36;17.23;;;10.95;;
73515;SDS011;61763;51.416;5.442;2023-09-08T05:55:01;19.10;;;10.10;;
73515;SDS011;61763;51.416;5.442;2023-09-08T05:57:27;17.58;;;11.23;;
73515;SDS011;61763;51.416;5.442;2023-09-08T05:59:52;18.15;;;11.98;;
73515;SDS011;61763;51.416;5.442;2023-09-08T06:02:17;20.83;;;10.23;;
73515;SDS011;61763;51.416;5.442;2023-09-08T06:04:43;20.20;;;12.38;;
73515;SDS011;61763;51.416;5.442;2023-09-08T06:07:10;16.48;;;11.68;;
73515;SDS011;61763;51.416;5.442;2023-09-08T06:09:35;17.98;;;11.48;;
73515;SDS011;61763;51.416;5.442;2023-09-08T06:12:00;17.45;;;10.27;;
73515;SDS011;61763;51.416;5.442;2023-09-08T06:14:26;18.55;;;9.95;;
73515;SDS011;61763;51.416;5.442;2023-09-08T06:16:51;18.70;;;9.60;;
73515;SDS011;61763;51.416;5.442;2023-09-08T06:19:16;17.27;;;10.88;;
73515;SDS011;61763;51.416;5.442;2023-09-08T06:21:42;21.38;;;10.43;;
73515;SDS011;61763;51.416;5.442;2023-09-08T06:24:07;15.27;;;9.68;;
73515;SDS011;61763;51.416;5.442;2023-09-08T06:26:33;17.55;;;9.75;;
73515;SDS011;61763;51.416;5.442;2023-09-08T06:28:58;16.23;;;10.25;;
73515;SDS011;61763;51.416;5.442;2023-09-08T06:31:24;15.95;;;8.45;;
73515;SDS011;61763;51.416;5.442;2023-09-08T06:33:49;16.10;;;9.80;;
73515;SDS011;61763;51.416;5.442;2023-09-08T06:36:17;18.48;;;9.07;;
73515;SDS011;61763;51.416;5.442;2023-09-08T06:38:43;16.38;;;8.57;;
73515;SDS011;61763;51.416;5.442;2023-09-08T06:41:09;14.10;;;9.20;;
73515;SDS011;61763;51.416;5.442;2023-09-08T06:43:38;12.52;;;8.55;;
73515;SDS011;61763;51.416;5.442;2023-09-08T06:46:04;14.45;;;8.90;;
73515;SDS011;61763;51.416;5.442;2023-09-08T06:48:29;16.65;;;8.63;;
73515;SDS011;61763;51.416;5.442;2023-09-08T06:50:55;14.75;;;9.93;;
73515;SDS011;61763;51.416;5.442;2023-09-08T06:53:21;12.77;;;8.85;;
73515;SDS011;61763;51.416;5.442;2023-09-08T06:55:47;18.67;;;9.65;;
73515;SDS011;61763;51.416;5.442;2023-09-08T06:58:13;13.68;;;7.97;;
73515;SDS011;61763;51.416;5.442;2023-09-08T07:00:40;12.98;;;8.70;;
73515;SDS011;61763;51.416;5.442;2023-09-08T07:03:06;14.57;;;7.63;;
73515;SDS011;61763;51.416;5.442;2023-09-08T07:05:31;13.40;;;8.63;;
73515;SDS011;61763;51.416;5.442;2023-09-08T07:07:57;14.77;;;7.57;;
73515;SDS011;61763;51.416;5.442;2023-09-08T07:10:22;12.98;;;6.70;;
73515;SDS011;61763;51.416;5.442;2023-09-08T07:12:47;12.43;;;7.78;;
73515;SDS011;61763;51.416;5.442;2023-09-08T07:15:13;14.35;;;7.88;;
73515;SDS011;61763;51.416;5.442;2023-09-08T07:17:38;12.40;;;7.18;;
73515;SDS011;61763;51.416;5.442;2023-09-08T07:20:04;13.45;;;8.07;;
73515;SDS011;61763;51.416;5.442;2023-09-08T07:22:30;12.90;;;9.27;;
73515;SDS011;61763;51.416;5.442;2023-09-08T07:24:56;12.27;;;7.15;;
73515;SDS011;61763;51.416;5.442;2023-09-08T07:27:21;13.00;;;8.60;;
73515;SDS011;61763;51.416;5.442;2023-09-08T07:29:46;11.45;;;7.28;;
73515;SDS011;61763;51.416;5.442;2023-09-08T07:32:13;10.80;;;7.50;;
73515;SDS011;61763;51.416;5.442;2023-09-08T07:34:39;12.23;;;7.32;;
73515;SDS011;61763;51.416;5.442;2023-09-08T07:37:04;11.82;;;7.38;;
73515;SDS011;61763;51.416;5.442;2023-09-08T07:39:29;9.27;;;6.28;;
73515;SDS011;61763;51.416;5.442;2023-09-08T07:41:55;12.65;;;6.82;;
73515;SDS011;61763;51.416;5.442;2023-09-08T07:44:21;10.77;;;6.22;;
73515;SDS011;61763;51.416;5.442;2023-09-08T07:46:46;8.40;;;5.38;;
73515;SDS011;61763;51.416;5.442;2023-09-08T07:51:40;9.50;;;6.30;;
73515;SDS011;61763;51.416;5.442;2023-09-08T07:54:05;10.82;;;7.90;;
73515;SDS011;61763;51.416;5.442;2023-09-08T07:56:31;11.35;;;7.18;;
73515;SDS011;61763;51.416;5.442;2023-09-08T07:58:57;14.15;;;7.95;;
73515;SDS011;61763;51.416;5.442;2023-09-08T08:01:23;8.63;;;5.35;;
73515;SDS011;61763;51.416;5.442;2023-09-08T08:03:48;10.68;;;5.72;;
73515;SDS011;61763;51.416;5.442;2023-09-08T08:06:13;11.65;;;5.78;;
73515;SDS011;61763;51.416;5.442;2023-09-08T08:08:39;7.65;;;4.90;;
73515;SDS011;61763;51.416;5.442;2023-09-08T08:11:14;8.30;;;5.15;;
73515;SDS011;61763;51.416;5.442;2023-09-08T08:13:42;6.95;;;5.07;;
73515;SDS011;61763;51.416;5.442;2023-09-08T08:16:08;8.13;;;4.88;;
73515;SDS011;61763;51.416;5.442;2023-09-08T08:18:33;9.27;;;6.57;;
73515;SDS011;61763;51.416;5.442;2023-09-08T08:20:59;9.55;;;4.78;;
73515;SDS011;61763;51.416;5.442;2023-09-08T08:23:25;6.80;;;5.05;;
73515;SDS011;61763;51.416;5.442;2023-09-08T08:25:51;6.93;;;4.95;;
73515;SDS011;61763;51.416;5.442;2023-09-08T08:28:16;8.73;;;4.70;;
73515;SDS011;61763;51.416;5.442;2023-09-08T08:30:42;6.22;;;4.20;;
73515;SDS011;61763;51.416;5.442;2023-09-08T08:33:07;7.35;;;4.90;;
73515;SDS011;61763;51.416;5.442;2023-09-08T08:35:32;6.97;;;4.53;;
73515;SDS011;61763;51.416;5.442;2023-09-08T08:37:58;7.78;;;4.55;;
73515;SDS011;61763;51.416;5.442;2023-09-08T08:42:54;9.20;;;6.97;;
73515;SDS011;61763;51.416;5.442;2023-09-08T08:45:22;8.65;;;4.80;;
73515;SDS011;61763;51.416;5.442;2023-09-08T08:47:50;6.97;;;4.88;;
73515;SDS011;61763;51.416;5.442;2023-09-08T08:50:17;7.75;;;6.50;;
73515;SDS011;61763;51.416;5.442;2023-09-08T08:52:43;8.38;;;4.65;;
73515;SDS011;61763;51.416;5.442;2023-09-08T08:55:09;8.45;;;6.88;;
73515;SDS011;61763;51.416;5.442;2023-09-08T08:57:38;8.48;;;5.18;;
73515;SDS011;61763;51.416;5.442;2023-09-08T09:00:07;8.73;;;6.20;;
73515;SDS011;61763;51.416;5.442;2023-09-08T09:02:35;8.38;;;4.72;;
73515;SDS011;61763;51.416;5.442;2023-09-08T09:05:03;9.50;;;6.43;;
73515;SDS011;61763;51.416;5.442;2023-09-08T09:07:31;10.10;;;5.97;;
73515;SDS011;61763;51.416;5.442;2023-09-08T09:09:57;8.10;;;5.05;;
73515;SDS011;61763;51.416;5.442;2023-09-08T09:12:22;8.88;;;4.50;;
73515;SDS011;61763;51.416;5.442;2023-09-08T09:14:51;8.50;;;5.75;;
73515;SDS011;61763;51.416;5.442;2023-09-08T09:17:18;6.82;;;4.40;;
73515;SDS011;61763;51.416;5.442;2023-09-08T09:19:44;8.98;;;6.65;;
73515;SDS011;61763;51.416;5.442;2023-09-08T09:22:09;7.60;;;4.45;;
73515;SDS011;61763;51.416;5.442;2023-09-08T09:24:35;6.38;;;4.53;;
73515;SDS011;61763;51.416;5.442;2023-09-08T09:27:04;8.05;;;6.38;;
73515;SDS011;61763;51.416;5.442;2023-09-08T09:29:31;7.13;;;4.35;;
73515;SDS011;61763;51.416;5.442;2023-09-08T09:32:01;7.22;;;6.45;;
73515;SDS011;61763;51.416;5.442;2023-09-08T09:34:29;6.55;;;4.43;;
73515;SDS011;61763;51.416;5.442;2023-09-08T09:36:55;5.70;;;4.57;;
73515;SDS011;61763;51.416;5.442;2023-09-08T09:39:21;6.82;;;4.53;;
73515;SDS011;61763;51.416;5.442;2023-09-08T09:41:48;9.48;;;6.32;;
73515;SDS011;61763;51.416;5.442;2023-09-08T09:44:17;7.75;;;7.05;;
73515;SDS011;61763;51.416;5.442;2023-09-08T09:46:46;7.43;;;4.43;;
73515;SDS011;61763;51.416;5.442;2023-09-08T09:49:12;9.35;;;5.05;;
73515;SDS011;61763;51.416;5.442;2023-09-08T09:51:45;9.88;;;5.93;;
73515;SDS011;61763;51.416;5.442;2023-09-08T09:54:12;9.65;;;4.78;;
73515;SDS011;61763;51.416;5.442;2023-09-08T09:56:38;7.72;;;4.53;;
73515;SDS011;61763;51.416;5.442;2023-09-08T10:01:33;8.48;;;6.32;;
73515;SDS011;61763;51.416;5.442;2023-09-08T10:03:58;5.18;;;3.70;;
73515;SDS011;61763;51.416;5.442;2023-09-08T10:06:25;7.15;;;4.13;;
73515;SDS011;61763;51.416;5.442;2023-09-08T10:08:51;6.40;;;5.57;;
73515;SDS011;61763;51.416;5.442;2023-09-08T10:11:20;7.82;;;6.50;;
73515;SDS011;61763;51.416;5.442;2023-09-08T10:13:47;8.63;;;5.00;;
73515;SDS011;61763;51.416;5.442;2023-09-08T10:16:19;6.53;;;4.68;;
73515;SDS011;61763;51.416;5.442;2023-09-08T10:18:46;7.13;;;6.07;;
73515;SDS011;61763;51.416;5.442;2023-09-08T10:21:12;6.80;;;4.20;;
73515;SDS011;61763;51.416;5.442;2023-09-08T10:23:41;8.60;;;4.65;;
73515;SDS011;61763;51.416;5.442;2023-09-08T10:26:10;6.78;;;4.93;;
73515;SDS011;61763;51.416;5.442;2023-09-08T10:28:36;7.90;;;4.30;;
73515;SDS011;61763;51.416;5.442;2023-09-08T10:31:02;6.40;;;5.63;;
73515;SDS011;61763;51.416;5.442;2023-09-08T10:33:28;9.90;;;5.60;;
73515;SDS011;61763;51.416;5.442;2023-09-08T10:35:55;7.50;;;5.75;;
73515;SDS011;61763;51.416;5.442;2023-09-08T10:40:51;5.82;;;5.13;;
73515;SDS011;61763;51.416;5.442;2023-09-08T10:43:17;7.20;;;5.38;;
73515;SDS011;61763;51.416;5.442;2023-09-08T10:45:43;7.53;;;6.07;;
73515;SDS011;61763;51.416;5.442;2023-09-08T10:48:10;7.40;;;4.78;;
73515;SDS011;61763;51.416;5.442;2023-09-08T10:50:39;5.78;;;5.15;;
73515;SDS011;61763;51.416;5.442;2023-09-08T10:53:15;6.93;;;4.40;;
73515;SDS011;61763;51.416;5.442;2023-09-08T10:58:33;6.90;;;5.82;;
73515;SDS011;61763;51.416;5.442;2023-09-08T11:01:04;7.43;;;6.55;;
73515;SDS011;61763;51.416;5.442;2023-09-08T11:06:07;9.00;;;6.43;;
73515;SDS011;61763;51.416;5.442;2023-09-08T11:08:34;6.75;;;4.47;;
73515;SDS011;61763;51.416;5.442;2023-09-08T11:11:02;5.07;;;4.18;;
73515;SDS011;61763;51.416;5.442;2023-09-08T11:13:27;6.97;;;6.30;;
73515;SDS011;61763;51.416;5.442;2023-09-08T11:15:53;9.65;;;4.72;;
73515;SDS011;61763;51.416;5.442;2023-09-08T11:18:28;6.93;;;4.70;;
73515;SDS011;61763;51.416;5.442;2023-09-08T11:20:55;6.07;;;3.75;;
73515;SDS011;61763;51.416;5.442;2023-09-08T11:23:21;5.97;;;5.38;;
73515;SDS011;61763;51.416;5.442;2023-09-08T11:25:48;6.80;;;4.95;;
73515;SDS011;61763;51.416;5.442;2023-09-08T11:28:15;8.20;;;4.68;;
73515;SDS011;61763;51.416;5.442;2023-09-08T11:33:19;6.10;;;3.97;;
73515;SDS011;61763;51.416;5.442;2023-09-08T11:35:50;5.50;;;3.50;;
73515;SDS011;61763;51.416;5.442;2023-09-08T11:38:17;6.28;;;5.20;;
73515;SDS011;61763;51.416;5.442;2023-09-08T11:40:42;7.63;;;4.72;;
73515;SDS011;61763;51.416;5.442;2023-09-08T11:43:08;7.80;;;5.57;;
73515;SDS011;61763;51.416;5.442;2023-09-08T11:45:34;6.72;;;4.45;;
73515;SDS011;61763;51.416;5.442;2023-09-08T11:48:00;7.07;;;5.50;;
73515;SDS011;61763;51.416;5.442;2023-09-08T11:50:26;5.68;;;3.88;;
73515;SDS011;61763;51.416;5.442;2023-09-08T11:52:51;8.38;;;4.50;;
73515;SDS011;61763;51.416;5.442;2023-09-08T11:55:18;5.95;;;4.20;;
73515;SDS011;61763;51.416;5.442;2023-09-08T11:57:48;7.80;;;4.50;;
73515;SDS011;61763;51.416;5.442;2023-09-08T12:00:19;8.68;;;3.97;;
73515;SDS011;61763;51.416;5.442;2023-09-08T12:02:48;6.50;;;4.82;;
73515;SDS011;61763;51.416;5.442;2023-09-08T12:05:20;7.18;;;4.70;;
73515;SDS011;61763;51.416;5.442;2023-09-08T12:07:46;8.27;;;5.95;;
73515;SDS011;61763;51.416;5.442;2023-09-08T12:10:12;4.35;;;3.50;;
73515;SDS011;61763;51.416;5.442;2023-09-08T12:12:57;7.47;;;4.13;;
73515;SDS011;61763;51.416;5.442;2023-09-08T12:18:01;7.70;;;5.80;;
73515;SDS011;61763;51.416;5.442;2023-09-08T12:20:30;8.35;;;5.90;;
73515;SDS011;61763;51.416;5.442;2023-09-08T12:23:00;7.03;;;5.82;;
73515;SDS011;61763;51.416;5.442;2023-09-08T12:25:27;5.90;;;5.30;;
73515;SDS011;61763;51.416;5.442;2023-09-08T12:27:56;7.43;;;5.80;;
73515;SDS011;61763;51.416;5.442;2023-09-08T12:30:22;7.35;;;4.63;;
73515;SDS011;61763;51.416;5.442;2023-09-08T12:32:55;9.82;;;4.20;;
73515;SDS011;61763;51.416;5.442;2023-09-08T12:35:25;6.47;;;4.28;;
73515;SDS011;61763;51.416;5.442;2023-09-08T12:40:25;5.85;;;4.28;;
73515;SDS011;61763;51.416;5.442;2023-09-08T12:42:54;6.28;;;4.97;;
73515;SDS011;61763;51.416;5.442;2023-09-08T12:45:20;10.07;;;6.22;;
73515;SDS011;61763;51.416;5.442;2023-09-08T12:47:47;7.78;;;4.30;;
73515;SDS011;61763;51.416;5.442;2023-09-08T12:50:13;8.63;;;5.32;;
73515;SDS011;61763;51.416;5.442;2023-09-08T12:52:39;8.63;;;6.78;;
73515;SDS011;61763;51.416;5.442;2023-09-08T12:55:04;6.03;;;3.95;;
73515;SDS011;61763;51.416;5.442;2023-09-08T12:57:30;7.40;;;6.47;;
73515;SDS011;61763;51.416;5.442;2023-09-08T12:59:55;6.70;;;4.20;;
73515;SDS011;61763;51.416;5.442;2023-09-08T13:02:21;5.70;;;3.97;;
73515;SDS011;61763;51.416;5.442;2023-09-08T13:04:46;5.82;;;4.53;;
73515;SDS011;61763;51.416;5.442;2023-09-08T13:09:42;7.88;;;4.60;;
73515;SDS011;61763;51.416;5.442;2023-09-08T13:12:07;7.55;;;4.47;;
73515;SDS011;61763;51.416;5.442;2023-09-08T13:14:37;8.05;;;6.60;;
73515;SDS011;61763;51.416;5.442;2023-09-08T13:17:03;6.68;;;4.93;;
73515;SDS011;61763;51.416;5.442;2023-09-08T13:19:28;12.82;;;4.75;;
73515;SDS011;61763;51.416;5.442;2023-09-08T13:21:54;5.20;;;4.65;;
73515;SDS011;61763;51.416;5.442;2023-09-08T13:24:19;15.10;;;6.68;;
73515;SDS011;61763;51.416;5.442;2023-09-08T13:26:47;10.65;;;6.85;;
73515;SDS011;61763;51.416;5.442;2023-09-08T13:29:12;7.40;;;4.65;;
73515;SDS011;61763;51.416;5.442;2023-09-08T13:31:37;7.37;;;6.50;;
73515;SDS011;61763;51.416;5.442;2023-09-08T13:34:03;9.02;;;5.05;;
73515;SDS011;61763;51.416;5.442;2023-09-08T13:36:28;5.90;;;4.40;;
73515;SDS011;61763;51.416;5.442;2023-09-08T13:38:53;7.35;;;4.75;;
73515;SDS011;61763;51.416;5.442;2023-09-08T13:41:19;7.43;;;6.63;;
73515;SDS011;61763;51.416;5.442;2023-09-08T13:43:44;7.90;;;5.75;;
73515;SDS011;61763;51.416;5.442;2023-09-08T13:46:09;6.90;;;5.00;;
73515;SDS011;61763;51.416;5.442;2023-09-08T13:48:35;7.07;;;6.37;;
73515;SDS011;61763;51.416;5.442;2023-09-08T13:51:01;6.28;;;5.03;;
73515;SDS011;61763;51.416;5.442;2023-09-08T13:53:27;7.50;;;5.93;;
73515;SDS011;61763;51.416;5.442;2023-09-08T13:55:53;4.68;;;4.07;;
73515;SDS011;61763;51.416;5.442;2023-09-08T13:58:18;6.47;;;4.88;;
73515;SDS011;61763;51.416;5.442;2023-09-08T14:00:43;5.95;;;3.58;;
73515;SDS011;61763;51.416;5.442;2023-09-08T14:03:09;7.03;;;4.10;;
73515;SDS011;61763;51.416;5.442;2023-09-08T14:05:34;8.43;;;4.77;;
73515;SDS011;61763;51.416;5.442;2023-09-08T14:07:59;6.13;;;5.43;;
73515;SDS011;61763;51.416;5.442;2023-09-08T14:10:25;7.22;;;5.57;;
73515;SDS011;61763;51.416;5.442;2023-09-08T14:12:50;8.80;;;5.68;;
73515;SDS011;61763;51.416;5.442;2023-09-08T14:15:15;6.47;;;3.23;;
73515;SDS011;61763;51.416;5.442;2023-09-08T14:17:41;6.38;;;5.53;;
73515;SDS011;61763;51.416;5.442;2023-09-08T14:20:07;5.03;;;3.38;;
73515;SDS011;61763;51.416;5.442;2023-09-08T14:22:33;5.93;;;5.35;;
73515;SDS011;61763;51.416;5.442;2023-09-08T14:24:58;5.30;;;3.25;;
73515;SDS011;61763;51.416;5.442;2023-09-08T14:27:24;7.57;;;5.60;;
73515;SDS011;61763;51.416;5.442;2023-09-08T14:29:49;8.30;;;5.18;;
73515;SDS011;61763;51.416;5.442;2023-09-08T14:32:14;6.18;;;5.57;;
73515;SDS011;61763;51.416;5.442;2023-09-08T14:34:40;5.63;;;4.53;;
73515;SDS011;61763;51.416;5.442;2023-09-08T14:37:05;8.57;;;4.88;;
73515;SDS011;61763;51.416;5.442;2023-09-08T14:39:30;5.03;;;3.55;;
73515;SDS011;61763;51.416;5.442;2023-09-08T14:41:56;5.10;;;3.97;;
73515;SDS011;61763;51.416;5.442;2023-09-08T14:44:21;6.70;;;5.75;;
73515;SDS011;61763;51.416;5.442;2023-09-08T14:46:47;6.53;;;3.50;;
73515;SDS011;61763;51.416;5.442;2023-09-08T14:49:13;5.88;;;3.95;;
73515;SDS011;61763;51.416;5.442;2023-09-08T14:54:05;7.78;;;5.25;;
73515;SDS011;61763;51.416;5.442;2023-09-08T14:56:31;8.98;;;5.22;;
73515;SDS011;61763;51.416;5.442;2023-09-08T14:58:56;6.00;;;5.40;;
73515;SDS011;61763;51.416;5.442;2023-09-08T15:01:21;8.00;;;5.85;;
73515;SDS011;61763;51.416;5.442;2023-09-08T15:03:47;6.88;;;3.53;;
73515;SDS011;61763;51.416;5.442;2023-09-08T15:06:12;9.18;;;5.00;;
73515;SDS011;61763;51.416;5.442;2023-09-08T15:08:37;6.70;;;5.63;;